Saint Catharines, Canada
Current Conditions -  °F | °C
As of 4:00 PM on Friday 24 Oct 2014 (Local Time) from CYSN Reporting Station
Broken Clouds Broken Clouds  
Wind Chill: 54°   Ceiling: 25000
Heat Index: 54°   Visibility: 15mi
Dew Point: 41°   Wind: 9mph
Humidity: 62%   Direction: 230°SW
Pressure: 29.96"   Gusts: NA
Location:  43.16°N, 79.25°W
Report Text: CYSN 242000Z 23008KT 15SM BKN250 12/05 A2996 RMK CI7 SLP146
Loading
Personal Weather Stations






























Interactive Weather Map
Tropical Storm Tracking
New forecast layout! Learn more

10-Day Weather Forecast

Advertisements
Track Severe Weather on mobile